This is the latest recevied weather packets stored in our database for station/object K5OLV. If no packets are shown the sender has not sent any weather packets the latest 10 day(s).
| Time | Temp. | Humidity | Pressure | Rain* | Wind** | Luminosity | Snow |
|---|---|---|---|---|---|---|---|
| 1777313601 | 22.22° C | 66% | 1016.2 hPa | 0 mm | - | 740 W/m² | - |
| 1777313300 | 22.22° C | 67% | 1016.1 hPa | 0 mm | - | 731 W/m² | - |
| 1777312996 | 21.67° C | 69% | 1016.2 hPa | 0 mm | - | 693 W/m² | - |
| 1777312692 | 22.78° C | 67% | 1016.2 hPa | 0 mm | - | 715 W/m² | - |
| 1777312389 | 21.67° C | 69% | 1016.3 hPa | 0 mm | - | 738 W/m² | - |
| 1777312086 | 22.22° C | 68% | 1016.3 hPa | 0 mm | - | 725 W/m² | - |
| 1777311783 | 21.67° C | 69% | 1016.3 hPa | 0 mm | - | 718 W/m² | - |
| 1777311480 | 21.67° C | 70% | 1016.4 hPa | 0 mm | - | 711 W/m² | - |
| 1777311177 | 20.56° C | 70% | 1016.4 hPa | 0 mm | - | 710 W/m² | - |
| 1777310876 | 20.56° C | 70% | 1016.4 hPa | 0 mm | - | 698 W/m² | - |
| 1777310573 | 20.56° C | 71% | 1016.4 hPa | 0 mm | - | 696 W/m² | - |
| 1777310270 | 20.56° C | 71% | 1016.1 hPa | 0 mm | - | 707 W/m² | - |
| 1777309967 | 20.56° C | 71% | 1016.2 hPa | 0 mm | - | 729 W/m² | - |
| 1777309665 | 20.56° C | 70% | 1016.1 hPa | 0 mm | - | 727 W/m² | - |
| 1777309362 | 20.56° C | 70% | 1016.3 hPa | 0 mm | - | 683 W/m² | - |
| 1777309060 | 20.56° C | 71% | 1016.3 hPa | 0 mm | - | 662 W/m² | - |
| 1777308757 | 20° C | 71% | 1016.3 hPa | 0 mm | - | 652 W/m² | - |
| 1777308452 | 20° C | 72% | 1016.5 hPa | 0 mm | - | 652 W/m² | - |
| 1777308147 | 20° C | 71% | 1016.3 hPa | 0 mm | - | 647 W/m² | - |
| 1777307844 | 20° C | 72% | 1016.5 hPa | 0 mm | - | 670 W/m² | - |
| 1777307542 | 20° C | 70% | 1016.7 hPa | 0 mm | - | 648 W/m² | - |
| 1777307238 | 20.56° C | 70% | 1016.4 hPa | 0 mm | - | 660 W/m² | - |
| 1777306936 | 19.44° C | 73% | 1016.7 hPa | 0 mm | - | 684 W/m² | - |
| 1777306633 | 20° C | 72% | 1017 hPa | 0 mm | - | 675 W/m² | - |
| 1777306329 | 20.56° C | 71% | 1017.1 hPa | 0 mm | - | 725 W/m² | - |
* Rain latest hour (hover to see other rain measurements)
** Current wind speed in m/s (hover to see current wind gust speed)